sensor_id;sensor_type;location;lat;lon;timestamp;pressure;altitude;pressure_sealevel;temperature;humidity
72677;BME280;60755;51.374;10.662;2023-07-08T00:00:18;97655.69;;;17.02;55.35
72677;BME280;60755;51.374;10.662;2023-07-08T00:02:47;97649.31;;;17.03;56.04
72677;BME280;60755;51.374;10.662;2023-07-08T00:05:16;97653.81;;;16.97;56.27
72677;BME280;60755;51.374;10.662;2023-07-08T00:07:44;97653.03;;;17.02;56.33
72677;BME280;60755;51.374;10.662;2023-07-08T00:10:13;97648.25;;;16.94;56.89
72677;BME280;60755;51.374;10.662;2023-07-08T00:12:40;97653.00;;;16.92;56.53
72677;BME280;60755;51.374;10.662;2023-07-08T00:15:09;97640.81;;;16.91;57.03
72677;BME280;60755;51.374;10.662;2023-07-08T00:17:37;97636.31;;;16.86;57.66
72677;BME280;60755;51.374;10.662;2023-07-08T00:20:15;97645.31;;;16.70;57.98
72677;BME280;60755;51.374;10.662;2023-07-08T00:22:43;97641.81;;;16.64;59.44
72677;BME280;60755;51.374;10.662;2023-07-08T00:25:12;97634.13;;;16.63;57.42
72677;BME280;60755;51.374;10.662;2023-07-08T00:27:39;97636.50;;;16.64;58.58
72677;BME280;60755;51.374;10.662;2023-07-08T00:30:21;97629.88;;;16.67;58.45
72677;BME280;60755;51.374;10.662;2023-07-08T00:32:49;97628.00;;;16.67;59.03
72677;BME280;60755;51.374;10.662;2023-07-08T00:35:26;97623.50;;;16.63;59.20
72677;BME280;60755;51.374;10.662;2023-07-08T00:37:55;97624.81;;;16.55;59.04
72677;BME280;60755;51.374;10.662;2023-07-08T00:40:28;97628.00;;;16.52;58.96
72677;BME280;60755;51.374;10.662;2023-07-08T00:42:55;97633.06;;;16.54;59.49
72677;BME280;60755;51.374;10.662;2023-07-08T00:45:32;97635.16;;;16.51;60.15
72677;BME280;60755;51.374;10.662;2023-07-08T00:48:07;97633.03;;;16.48;60.17
72677;BME280;60755;51.374;10.662;2023-07-08T00:50:36;97641.78;;;16.44;60.21
72677;BME280;60755;51.374;10.662;2023-07-08T00:53:24;97640.72;;;16.50;59.42
72677;BME280;60755;51.374;10.662;2023-07-08T00:55:53;97637.00;;;16.41;59.94
72677;BME280;60755;51.374;10.662;2023-07-08T00:58:23;97636.47;;;16.39;60.51
72677;BME280;60755;51.374;10.662;2023-07-08T01:00:53;97635.69;;;16.38;60.90
72677;BME280;60755;51.374;10.662;2023-07-08T01:03:23;97634.31;;;16.36;60.01
72677;BME280;60755;51.374;10.662;2023-07-08T01:05:55;97632.22;;;16.38;60.43
72677;BME280;60755;51.374;10.662;2023-07-08T01:08:26;97635.94;;;16.42;60.32
72677;BME280;60755;51.374;10.662;2023-07-08T01:10:59;97635.44;;;16.45;60.14
72677;BME280;60755;51.374;10.662;2023-07-08T01:13:33;97636.22;;;16.40;60.14
72677;BME280;60755;51.374;10.662;2023-07-08T01:16:04;97626.38;;;16.36;60.96
72677;BME280;60755;51.374;10.662;2023-07-08T01:18:31;97628.78;;;16.37;60.15
72677;BME280;60755;51.374;10.662;2023-07-08T01:21:02;97624.28;;;16.38;60.72
72677;BME280;60755;51.374;10.662;2023-07-08T01:23:35;97610.44;;;16.36;60.81
72677;BME280;60755;51.374;10.662;2023-07-08T01:26:03;97612.53;;;16.18;62.67
72677;BME280;60755;51.374;10.662;2023-07-08T01:28:31;97615.13;;;16.03;63.30
72677;BME280;60755;51.374;10.662;2023-07-08T01:30:58;97617.00;;;15.98;62.45
72677;BME280;60755;51.374;10.662;2023-07-08T01:33:26;97612.44;;;15.88;62.52
72677;BME280;60755;51.374;10.662;2023-07-08T01:35:54;97611.47;;;16.04;62.07
72677;BME280;60755;51.374;10.662;2023-07-08T01:38:24;97611.47;;;16.04;61.72
72677;BME280;60755;51.374;10.662;2023-07-08T01:40:55;97605.63;;;16.07;62.24
72677;BME280;60755;51.374;10.662;2023-07-08T01:43:23;97613.00;;;15.95;62.53
72677;BME280;60755;51.374;10.662;2023-07-08T01:45:50;97609.25;;;15.81;63.55
72677;BME280;60755;51.374;10.662;2023-07-08T01:48:21;97606.03;;;15.79;63.33
72677;BME280;60755;51.374;10.662;2023-07-08T01:50:54;97606.53;;;15.65;65.30
72677;BME280;60755;51.374;10.662;2023-07-08T01:53:28;97607.47;;;15.54;65.69
72677;BME280;60755;51.374;10.662;2023-07-08T01:55:57;97602.38;;;15.43;66.33
72677;BME280;60755;51.374;10.662;2023-07-08T01:58:25;97606.34;;;15.40;65.98
72677;BME280;60755;51.374;10.662;2023-07-08T02:00:53;97605.47;;;15.29;67.39
72677;BME280;60755;51.374;10.662;2023-07-08T02:03:23;97589.53;;;15.19;70.95
72677;BME280;60755;51.374;10.662;2023-07-08T02:05:50;97589.81;;;15.18;71.64
72677;BME280;60755;51.374;10.662;2023-07-08T02:08:17;97596.00;;;14.96;69.85
72677;BME280;60755;51.374;10.662;2023-07-08T02:10:48;97593.06;;;14.93;68.97
72677;BME280;60755;51.374;10.662;2023-07-08T02:13:17;97585.59;;;14.85;69.80
72677;BME280;60755;51.374;10.662;2023-07-08T02:15:44;97583.22;;;14.88;68.05
72677;BME280;60755;51.374;10.662;2023-07-08T02:18:11;97593.03;;;14.88;71.32
72677;BME280;60755;51.374;10.662;2023-07-08T02:20:38;97592.81;;;14.94;68.59
72677;BME280;60755;51.374;10.662;2023-07-08T02:23:05;97591.56;;;15.07;67.29
72677;BME280;60755;51.374;10.662;2023-07-08T02:25:32;97590.28;;;15.09;67.40
72677;BME280;60755;51.374;10.662;2023-07-08T02:27:59;97591.34;;;15.14;67.25
72677;BME280;60755;51.374;10.662;2023-07-08T02:30:28;97593.53;;;15.22;66.51
72677;BME280;60755;51.374;10.662;2023-07-08T02:32:55;97584.75;;;15.16;66.20
72677;BME280;60755;51.374;10.662;2023-07-08T02:35:24;97587.66;;;15.15;67.44
72677;BME280;60755;51.374;10.662;2023-07-08T02:37:52;97588.47;;;15.20;66.67
72677;BME280;60755;51.374;10.662;2023-07-08T02:40:19;97594.53;;;15.16;66.64
72677;BME280;60755;51.374;10.662;2023-07-08T02:42:46;97594.53;;;15.16;66.39
72677;BME280;60755;51.374;10.662;2023-07-08T02:45:14;97592.66;;;15.11;68.51
72677;BME280;60755;51.374;10.662;2023-07-08T02:47:43;97588.09;;;15.01;72.65
72677;BME280;60755;51.374;10.662;2023-07-08T02:50:11;97594.84;;;15.19;73.35
72677;BME280;60755;51.374;10.662;2023-07-08T02:52:38;97591.13;;;14.83;73.07
72677;BME280;60755;51.374;10.662;2023-07-08T02:55:06;97590.44;;;14.61;72.82
72677;BME280;60755;51.374;10.662;2023-07-08T02:57:33;97594.16;;;14.65;76.67
72677;BME280;60755;51.374;10.662;2023-07-08T03:00:00;97586.50;;;14.41;75.79
72677;BME280;60755;51.374;10.662;2023-07-08T03:02:30;97592.66;;;14.20;75.30
72677;BME280;60755;51.374;10.662;2023-07-08T03:04:58;97594.97;;;14.16;75.01
72677;BME280;60755;51.374;10.662;2023-07-08T03:07:26;97593.66;;;14.14;75.97
72677;BME280;60755;51.374;10.662;2023-07-08T03:09:53;97593.13;;;14.17;78.21
72677;BME280;60755;51.374;10.662;2023-07-08T03:12:20;97595.75;;;14.12;77.07
72677;BME280;60755;51.374;10.662;2023-07-08T03:14:47;97594.63;;;14.08;78.25
72677;BME280;60755;51.374;10.662;2023-07-08T03:17:15;97597.72;;;13.99;76.84
72677;BME280;60755;51.374;10.662;2023-07-08T03:19:43;97605.09;;;13.97;75.86
72677;BME280;60755;51.374;10.662;2023-07-08T03:22:11;97601.50;;;14.09;79.07
72677;BME280;60755;51.374;10.662;2023-07-08T03:24:39;97600.59;;;13.98;76.09
72677;BME280;60755;51.374;10.662;2023-07-08T03:27:15;97596.13;;;13.98;75.54
72677;BME280;60755;51.374;10.662;2023-07-08T03:29:43;97597.09;;;13.92;75.95
72677;BME280;60755;51.374;10.662;2023-07-08T03:32:11;97592.00;;;14.08;76.31
72677;BME280;60755;51.374;10.662;2023-07-08T03:34:40;97602.34;;;14.95;76.78
72677;BME280;60755;51.374;10.662;2023-07-08T03:37:08;97602.38;;;15.95;69.46
72677;BME280;60755;51.374;10.662;2023-07-08T03:39:37;97600.19;;;17.00;65.22
72677;BME280;60755;51.374;10.662;2023-07-08T03:42:04;97605.25;;;18.02;61.43
72677;BME280;60755;51.374;10.662;2023-07-08T03:44:31;97597.53;;;18.50;60.35
72677;BME280;60755;51.374;10.662;2023-07-08T03:46:59;97604.69;;;19.23;57.93
72677;BME280;60755;51.374;10.662;2023-07-08T03:49:26;97607.56;;;20.03;57.08
72677;BME280;60755;51.374;10.662;2023-07-08T03:51:54;97599.41;;;20.56;54.46
72677;BME280;60755;51.374;10.662;2023-07-08T03:54:23;97602.25;;;21.44;52.28
72677;BME280;60755;51.374;10.662;2023-07-08T03:56:54;97597.97;;;22.25;50.95
72677;BME280;60755;51.374;10.662;2023-07-08T03:59:24;97606.25;;;22.74;51.72
72677;BME280;60755;51.374;10.662;2023-07-08T04:01:53;97598.78;;;23.07;50.00
72677;BME280;60755;51.374;10.662;2023-07-08T04:04:20;97600.88;;;23.50;48.02
72677;BME280;60755;51.374;10.662;2023-07-08T04:06:47;97603.69;;;23.67;47.82
72677;BME280;60755;51.374;10.662;2023-07-08T04:09:15;97601.44;;;24.17;46.08
72677;BME280;60755;51.374;10.662;2023-07-08T04:11:42;97599.72;;;25.08;43.77
72677;BME280;60755;51.374;10.662;2023-07-08T04:14:11;97603.16;;;25.73;41.45
72677;BME280;60755;51.374;10.662;2023-07-08T04:16:45;97608.16;;;26.12;39.65
72677;BME280;60755;51.374;10.662;2023-07-08T04:19:14;97598.31;;;26.37;42.82
72677;BME280;60755;51.374;10.662;2023-07-08T04:21:43;97602.31;;;26.10;40.24
72677;BME280;60755;51.374;10.662;2023-07-08T04:24:11;97602.94;;;26.78;40.85
72677;BME280;60755;51.374;10.662;2023-07-08T04:26:39;97607.16;;;27.21;41.05
72677;BME280;60755;51.374;10.662;2023-07-08T04:29:13;97615.94;;;27.30;39.84
72677;BME280;60755;51.374;10.662;2023-07-08T04:31:40;97615.22;;;27.09;41.30
72677;BME280;60755;51.374;10.662;2023-07-08T04:34:08;97616.19;;;26.71;41.59
72677;BME280;60755;51.374;10.662;2023-07-08T04:36:36;97618.50;;;26.40;41.57
72677;BME280;60755;51.374;10.662;2023-07-08T04:39:04;97624.84;;;25.76;44.52
72677;BME280;60755;51.374;10.662;2023-07-08T04:41:31;97623.91;;;25.63;44.82
72677;BME280;60755;51.374;10.662;2023-07-08T04:43:58;97620.44;;;25.63;46.36
72677;BME280;60755;51.374;10.662;2023-07-08T04:46:35;97621.53;;;26.30;42.16
72677;BME280;60755;51.374;10.662;2023-07-08T04:49:04;97620.66;;;26.67;41.83
72677;BME280;60755;51.374;10.662;2023-07-08T04:51:32;97621.09;;;27.23;41.41
72677;BME280;60755;51.374;10.662;2023-07-08T04:53:59;97626.78;;;27.55;40.80
72677;BME280;60755;51.374;10.662;2023-07-08T04:56:36;97615.75;;;27.36;41.04
72677;BME280;60755;51.374;10.662;2023-07-08T04:59:04;97621.88;;;27.24;41.79
72677;BME280;60755;51.374;10.662;2023-07-08T05:01:33;97611.56;;;26.72;44.24
72677;BME280;60755;51.374;10.662;2023-07-08T05:04:00;97609.13;;;25.87;43.44
72677;BME280;60755;51.374;10.662;2023-07-08T05:06:27;97618.94;;;26.42;41.76
72677;BME280;60755;51.374;10.662;2023-07-08T05:08:54;97616.66;;;27.64;42.67
72677;BME280;60755;51.374;10.662;2023-07-08T05:11:21;97620.16;;;28.13;41.05
72677;BME280;60755;51.374;10.662;2023-07-08T05:13:48;97617.16;;;28.03;42.33
72677;BME280;60755;51.374;10.662;2023-07-08T05:16:15;97611.94;;;29.03;39.65
72677;BME280;60755;51.374;10.662;2023-07-08T05:18:44;97617.06;;;30.15;38.84
72677;BME280;60755;51.374;10.662;2023-07-08T05:21:11;97618.59;;;32.23;36.16
72677;BME280;60755;51.374;10.662;2023-07-08T05:23:38;97621.97;;;33.37;34.11
72677;BME280;60755;51.374;10.662;2023-07-08T05:26:06;97612.09;;;34.25;32.85
72677;BME280;60755;51.374;10.662;2023-07-08T05:28:33;97602.03;;;35.44;31.39
72677;BME280;60755;51.374;10.662;2023-07-08T05:31:00;97603.59;;;35.59;31.15
72677;BME280;60755;51.374;10.662;2023-07-08T05:33:29;97610.09;;;36.58;31.49
72677;BME280;60755;51.374;10.662;2023-07-08T05:35:58;97600.38;;;37.23;29.24
72677;BME280;60755;51.374;10.662;2023-07-08T05:38:26;97605.88;;;36.25;30.67
72677;BME280;60755;51.374;10.662;2023-07-08T05:40:55;97595.72;;;35.19;29.39
72677;BME280;60755;51.374;10.662;2023-07-08T05:43:23;97605.09;;;35.18;29.97
72677;BME280;60755;51.374;10.662;2023-07-08T05:45:50;97601.63;;;35.39;30.66
72677;BME280;60755;51.374;10.662;2023-07-08T05:48:17;97599.56;;;34.89;29.10
72677;BME280;60755;51.374;10.662;2023-07-08T05:50:44;97612.41;;;36.63;28.81
72677;BME280;60755;51.374;10.662;2023-07-08T05:53:13;97611.56;;;36.81;28.67
72677;BME280;60755;51.374;10.662;2023-07-08T05:55:40;97616.59;;;37.00;29.13
72677;BME280;60755;51.374;10.662;2023-07-08T05:58:08;97604.72;;;37.17;28.47
72677;BME280;60755;51.374;10.662;2023-07-08T06:00:35;97599.13;;;37.87;27.18
72677;BME280;60755;51.374;10.662;2023-07-08T06:03:02;97602.22;;;38.65;28.66
72677;BME280;60755;51.374;10.662;2023-07-08T06:05:30;97597.47;;;39.77;28.19
72677;BME280;60755;51.374;10.662;2023-07-08T06:07:58;97606.13;;;39.98;27.96
72677;BME280;60755;51.374;10.662;2023-07-08T06:10:27;97604.31;;;40.35;26.75
72677;BME280;60755;51.374;10.662;2023-07-08T06:12:54;97611.50;;;40.29;27.29
72677;BME280;60755;51.374;10.662;2023-07-08T06:15:21;97608.56;;;40.60;26.74
72677;BME280;60755;51.374;10.662;2023-07-08T06:17:48;97607.19;;;40.88;27.07
72677;BME280;60755;51.374;10.662;2023-07-08T06:20:15;97598.94;;;41.04;26.06
72677;BME280;60755;51.374;10.662;2023-07-08T06:22:42;97606.31;;;40.91;25.85
72677;BME280;60755;51.374;10.662;2023-07-08T06:25:09;97604.72;;;40.93;25.28
72677;BME280;60755;51.374;10.662;2023-07-08T06:27:37;97598.34;;;41.29;24.65
72677;BME280;60755;51.374;10.662;2023-07-08T06:30:06;97601.69;;;41.56;25.30
72677;BME280;60755;51.374;10.662;2023-07-08T06:32:33;97601.53;;;40.35;26.49
72677;BME280;60755;51.374;10.662;2023-07-08T06:35:00;97605.53;;;40.90;24.42
72677;BME280;60755;51.374;10.662;2023-07-08T06:37:27;97603.56;;;41.43;23.91
72677;BME280;60755;51.374;10.662;2023-07-08T06:39:54;97605.16;;;41.08;24.18
72677;BME280;60755;51.374;10.662;2023-07-08T06:42:21;97605.16;;;41.08;24.91
72677;BME280;60755;51.374;10.662;2023-07-08T06:45:04;97610.38;;;41.55;23.18
72677;BME280;60755;51.374;10.662;2023-07-08T06:47:31;97602.91;;;41.55;23.70
72677;BME280;60755;51.374;10.662;2023-07-08T06:49:58;97601.06;;;42.10;22.34
72677;BME280;60755;51.374;10.662;2023-07-08T06:52:25;97604.91;;;41.19;23.59
72677;BME280;60755;51.374;10.662;2023-07-08T06:54:52;97604.28;;;41.63;24.46
72677;BME280;60755;51.374;10.662;2023-07-08T06:57:19;97619.97;;;41.50;24.64
72677;BME280;60755;51.374;10.662;2023-07-08T06:59:46;97610.81;;;41.86;24.64
72677;BME280;60755;51.374;10.662;2023-07-08T07:02:14;97610.50;;;40.39;25.61
72677;BME280;60755;51.374;10.662;2023-07-08T07:04:42;97617.72;;;41.61;24.25
72677;BME280;60755;51.374;10.662;2023-07-08T07:07:10;97608.53;;;40.20;26.22
72677;BME280;60755;51.374;10.662;2023-07-08T07:09:37;97622.03;;;40.74;26.22
72677;BME280;60755;51.374;10.662;2023-07-08T07:12:06;97619.50;;;39.77;26.38
72677;BME280;60755;51.374;10.662;2023-07-08T07:14:33;97615.94;;;41.02;25.43
72677;BME280;60755;51.374;10.662;2023-07-08T07:17:00;97619.97;;;40.78;25.06
72677;BME280;60755;51.374;10.662;2023-07-08T07:19:28;97621.19;;;41.66;24.62
72677;BME280;60755;51.374;10.662;2023-07-08T07:21:55;97625.63;;;41.27;23.88
72677;BME280;60755;51.374;10.662;2023-07-08T07:24:22;97609.47;;;38.10;28.04
72677;BME280;60755;51.374;10.662;2023-07-08T07:26:49;97618.94;;;39.62;26.60
72677;BME280;60755;51.374;10.662;2023-07-08T07:29:17;97621.78;;;41.04;23.94
72677;BME280;60755;51.374;10.662;2023-07-08T07:31:46;97632.91;;;39.24;26.32
72677;BME280;60755;51.374;10.662;2023-07-08T07:34:13;97629.56;;;41.09;24.19
72677;BME280;60755;51.374;10.662;2023-07-08T07:36:42;97619.03;;;41.04;25.25
72677;BME280;60755;51.374;10.662;2023-07-08T07:39:09;97623.00;;;38.66;28.36
72677;BME280;60755;51.374;10.662;2023-07-08T07:41:36;97618.78;;;36.25;29.97
72677;BME280;60755;51.374;10.662;2023-07-08T07:44:03;97625.63;;;34.69;32.60
72677;BME280;60755;51.374;10.662;2023-07-08T07:46:30;97630.03;;;32.93;37.01
72677;BME280;60755;51.374;10.662;2023-07-08T07:48:57;97633.56;;;31.84;36.07
72677;BME280;60755;51.374;10.662;2023-07-08T07:51:24;97634.72;;;30.59;39.31
72677;BME280;60755;51.374;10.662;2023-07-08T07:53:52;97628.00;;;30.53;42.98
72677;BME280;60755;51.374;10.662;2023-07-08T07:56:19;97628.00;;;30.18;40.45
72677;BME280;60755;51.374;10.662;2023-07-08T07:58:46;97629.78;;;29.95;43.26
72677;BME280;60755;51.374;10.662;2023-07-08T08:01:14;97632.63;;;29.23;43.73
72677;BME280;60755;51.374;10.662;2023-07-08T08:03:41;97631.28;;;29.17;47.36
72677;BME280;60755;51.374;10.662;2023-07-08T08:06:08;97638.94;;;28.99;45.40
72677;BME280;60755;51.374;10.662;2023-07-08T08:08:35;97633.53;;;28.99;46.76
72677;BME280;60755;51.374;10.662;2023-07-08T08:11:04;97635.88;;;29.01;42.12
72677;BME280;60755;51.374;10.662;2023-07-08T08:13:31;97643.13;;;28.96;46.61
72677;BME280;60755;51.374;10.662;2023-07-08T08:15:58;97641.13;;;29.09;47.73
72677;BME280;60755;51.374;10.662;2023-07-08T08:18:26;97631.34;;;29.05;43.60
72677;BME280;60755;51.374;10.662;2023-07-08T08:20:53;97633.00;;;29.09;43.23
72677;BME280;60755;51.374;10.662;2023-07-08T08:23:20;97640.69;;;29.07;45.70
72677;BME280;60755;51.374;10.662;2023-07-08T08:25:47;97632.66;;;29.11;45.09
72677;BME280;60755;51.374;10.662;2023-07-08T08:28:16;97629.28;;;29.14;44.63
72677;BME280;60755;51.374;10.662;2023-07-08T08:30:46;97636.94;;;28.43;45.44
72677;BME280;60755;51.374;10.662;2023-07-08T08:33:14;97640.16;;;29.02;46.82
72677;BME280;60755;51.374;10.662;2023-07-08T08:35:41;97631.03;;;29.22;46.25
72677;BME280;60755;51.374;10.662;2023-07-08T08:38:09;97623.28;;;29.36;45.12
72677;BME280;60755;51.374;10.662;2023-07-08T08:40:36;97624.91;;;29.25;40.67
72677;BME280;60755;51.374;10.662;2023-07-08T08:43:05;97637.22;;;29.07;43.24
72677;BME280;60755;51.374;10.662;2023-07-08T08:45:41;97638.56;;;28.73;47.39
72677;BME280;60755;51.374;10.662;2023-07-08T08:48:13;97634.66;;;28.86;44.51
72677;BME280;60755;51.374;10.662;2023-07-08T08:50:45;97628.97;;;28.75;45.32
72677;BME280;60755;51.374;10.662;2023-07-08T08:53:17;97634.88;;;28.65;45.96
72677;BME280;60755;51.374;10.662;2023-07-08T08:55:49;97635.78;;;28.85;41.60
72677;BME280;60755;51.374;10.662;2023-07-08T08:58:29;97633.03;;;28.69;40.78
72677;BME280;60755;51.374;10.662;2023-07-08T09:01:01;97634.94;;;28.40;45.29
72677;BME280;60755;51.374;10.662;2023-07-08T09:03:36;97629.25;;;28.58;42.64
72677;BME280;60755;51.374;10.662;2023-07-08T09:06:12;97625.63;;;28.66;38.11
72677;BME280;60755;51.374;10.662;2023-07-08T09:08:40;97621.84;;;28.30;36.75
72677;BME280;60755;51.374;10.662;2023-07-08T09:11:19;97617.31;;;28.47;39.14
72677;BME280;60755;51.374;10.662;2023-07-08T09:13:51;97615.31;;;28.31;37.52
72677;BME280;60755;51.374;10.662;2023-07-08T09:16:26;97617.16;;;28.67;37.16
72677;BME280;60755;51.374;10.662;2023-07-08T09:19:00;97619.81;;;28.27;36.17
72677;BME280;60755;51.374;10.662;2023-07-08T09:21:31;97621.06;;;28.42;36.19
72677;BME280;60755;51.374;10.662;2023-07-08T09:24:10;97623.06;;;28.85;40.25
72677;BME280;60755;51.374;10.662;2023-07-08T09:26:43;97619.81;;;29.08;39.07
72677;BME280;60755;51.374;10.662;2023-07-08T09:29:12;97626.31;;;29.19;36.49
72677;BME280;60755;51.374;10.662;2023-07-08T09:31:40;97632.09;;;28.77;40.49
72677;BME280;60755;51.374;10.662;2023-07-08T09:34:11;97629.16;;;29.10;37.53
72677;BME280;60755;51.374;10.662;2023-07-08T09:36:41;97630.91;;;29.03;37.76
72677;BME280;60755;51.374;10.662;2023-07-08T09:39:13;97646.28;;;28.98;41.39
72677;BME280;60755;51.374;10.662;2023-07-08T09:41:42;97646.63;;;28.97;40.62
72677;BME280;60755;51.374;10.662;2023-07-08T09:44:17;97642.94;;;28.77;41.77
72677;BME280;60755;51.374;10.662;2023-07-08T09:46:46;97654.19;;;28.91;39.87
72677;BME280;60755;51.374;10.662;2023-07-08T09:49:20;97647.81;;;29.12;39.98
72677;BME280;60755;51.374;10.662;2023-07-08T09:51:48;97646.41;;;28.37;39.72
72677;BME280;60755;51.374;10.662;2023-07-08T09:54:17;97641.13;;;29.37;39.23
72677;BME280;60755;51.374;10.662;2023-07-08T09:56:58;97644.28;;;29.87;38.12
72677;BME280;60755;51.374;10.662;2023-07-08T09:59:30;97640.25;;;29.96;38.73
72677;BME280;60755;51.374;10.662;2023-07-08T10:02:24;97642.22;;;30.31;38.22
72677;BME280;60755;51.374;10.662;2023-07-08T10:04:53;97638.16;;;30.56;34.18
72677;BME280;60755;51.374;10.662;2023-07-08T10:07:21;97639.22;;;31.52;32.62
72677;BME280;60755;51.374;10.662;2023-07-08T10:09:51;97639.47;;;30.82;36.21
72677;BME280;60755;51.374;10.662;2023-07-08T10:12:20;97642.94;;;31.86;34.38
72677;BME280;60755;51.374;10.662;2023-07-08T10:14:50;97632.22;;;31.97;30.48
72677;BME280;60755;51.374;10.662;2023-07-08T10:17:21;97636.38;;;31.91;33.78
72677;BME280;60755;51.374;10.662;2023-07-08T10:19:49;97629.38;;;31.67;33.54
72677;BME280;60755;51.374;10.662;2023-07-08T10:22:27;97630.75;;;31.34;35.83
72677;BME280;60755;51.374;10.662;2023-07-08T10:25:09;97625.69;;;29.85;36.29
72677;BME280;60755;51.374;10.662;2023-07-08T10:27:42;97622.00;;;30.09;32.16
72677;BME280;60755;51.374;10.662;2023-07-08T10:30:20;97612.56;;;29.87;35.99
72677;BME280;60755;51.374;10.662;2023-07-08T10:33:17;97621.66;;;30.11;34.52
72677;BME280;60755;51.374;10.662;2023-07-08T10:35:54;97624.53;;;30.37;34.45
72677;BME280;60755;51.374;10.662;2023-07-08T10:38:39;97621.19;;;30.44;31.43
72677;BME280;60755;51.374;10.662;2023-07-08T10:41:13;97616.44;;;30.56;34.51
72677;BME280;60755;51.374;10.662;2023-07-08T10:43:52;97615.00;;;30.62;33.78
72677;BME280;60755;51.374;10.662;2023-07-08T10:46:30;97617.66;;;30.59;32.65
72677;BME280;60755;51.374;10.662;2023-07-08T10:49:23;97620.31;;;30.20;30.90
72677;BME280;60755;51.374;10.662;2023-07-08T10:52:02;97613.50;;;29.95;33.50
72677;BME280;60755;51.374;10.662;2023-07-08T10:55:05;97615.34;;;29.75;31.72
72677;BME280;60755;51.374;10.662;2023-07-08T10:57:58;97615.06;;;29.48;31.44
72677;BME280;60755;51.374;10.662;2023-07-08T11:00:35;97610.84;;;29.35;31.38
72677;BME280;60755;51.374;10.662;2023-07-08T11:03:26;97610.38;;;29.77;33.21
72677;BME280;60755;51.374;10.662;2023-07-08T11:06:01;97605.72;;;29.93;30.99
72677;BME280;60755;51.374;10.662;2023-07-08T11:08:36;97606.38;;;29.71;35.39
72677;BME280;60755;51.374;10.662;2023-07-08T11:11:07;97607.00;;;29.99;31.89
72677;BME280;60755;51.374;10.662;2023-07-08T11:13:41;97607.69;;;29.77;35.79
72677;BME280;60755;51.374;10.662;2023-07-08T11:16:16;97605.13;;;30.00;30.91
72677;BME280;60755;51.374;10.662;2023-07-08T11:18:51;97602.03;;;30.01;35.01
72677;BME280;60755;51.374;10.662;2023-07-08T11:21:25;97600.91;;;30.02;31.05
72677;BME280;60755;51.374;10.662;2023-07-08T11:23:59;97593.84;;;29.82;29.97
72677;BME280;60755;51.374;10.662;2023-07-08T11:26:30;97593.47;;;29.99;31.18
72677;BME280;60755;51.374;10.662;2023-07-08T11:29:00;97603.13;;;29.81;32.27
72677;BME280;60755;51.374;10.662;2023-07-08T11:31:31;97597.44;;;29.70;29.32
72677;BME280;60755;51.374;10.662;2023-07-08T11:34:00;97606.38;;;29.55;29.80
72677;BME280;60755;51.374;10.662;2023-07-08T11:36:30;97604.50;;;29.75;34.36
72677;BME280;60755;51.374;10.662;2023-07-08T11:38:59;97601.91;;;29.63;31.83
72677;BME280;60755;51.374;10.662;2023-07-08T11:41:31;97605.41;;;29.63;33.29
72677;BME280;60755;51.374;10.662;2023-07-08T11:44:02;97604.22;;;29.48;32.16
72677;BME280;60755;51.374;10.662;2023-07-08T11:46:32;97607.09;;;29.24;30.74
72677;BME280;60755;51.374;10.662;2023-07-08T11:49:02;97603.97;;;29.22;30.39
72677;BME280;60755;51.374;10.662;2023-07-08T11:51:35;97601.69;;;29.40;30.23
72677;BME280;60755;51.374;10.662;2023-07-08T11:54:12;97597.59;;;29.30;29.11
72677;BME280;60755;51.374;10.662;2023-07-08T11:56:58;97589.47;;;29.46;29.93
72677;BME280;60755;51.374;10.662;2023-07-08T11:59:29;97591.22;;;29.38;36.10
72677;BME280;60755;51.374;10.662;2023-07-08T12:02:02;97587.19;;;29.32;34.29
72677;BME280;60755;51.374;10.662;2023-07-08T12:04:31;97593.13;;;29.22;33.52
72677;BME280;60755;51.374;10.662;2023-07-08T12:07:09;97587.38;;;29.39;29.95
72677;BME280;60755;51.374;10.662;2023-07-08T12:09:39;97591.81;;;29.32;31.25
72677;BME280;60755;51.374;10.662;2023-07-08T12:12:16;97585.69;;;29.35;29.64
72677;BME280;60755;51.374;10.662;2023-07-08T12:14:45;97588.16;;;29.40;30.84
72677;BME280;60755;51.374;10.662;2023-07-08T12:17:13;97579.84;;;29.48;30.68
72677;BME280;60755;51.374;10.662;2023-07-08T12:19:42;97580.28;;;29.19;32.31
72677;BME280;60755;51.374;10.662;2023-07-08T12:22:12;97580.63;;;29.33;32.57
72677;BME280;60755;51.374;10.662;2023-07-08T12:24:40;97583.00;;;29.35;31.09
72677;BME280;60755;51.374;10.662;2023-07-08T12:27:10;97574.25;;;29.25;33.12
72677;BME280;60755;51.374;10.662;2023-07-08T12:29:37;97573.81;;;29.23;33.30
72677;BME280;60755;51.374;10.662;2023-07-08T12:32:06;97565.19;;;29.49;29.99
72677;BME280;60755;51.374;10.662;2023-07-08T12:34:36;97558.38;;;29.56;32.21
72677;BME280;60755;51.374;10.662;2023-07-08T12:37:04;97568.50;;;29.43;31.77
72677;BME280;60755;51.374;10.662;2023-07-08T12:39:33;97568.16;;;29.13;31.17
72677;BME280;60755;51.374;10.662;2023-07-08T12:42:01;97555.59;;;29.36;31.75
72677;BME280;60755;51.374;10.662;2023-07-08T12:44:30;97552.00;;;29.32;31.03
72677;BME280;60755;51.374;10.662;2023-07-08T12:47:01;97552.59;;;29.10;31.84
72677;BME280;60755;51.374;10.662;2023-07-08T12:49:29;97558.69;;;29.07;30.56
72677;BME280;60755;51.374;10.662;2023-07-08T12:51:56;97552.59;;;29.10;30.46
72677;BME280;60755;51.374;10.662;2023-07-08T12:54:23;97547.59;;;28.68;31.30
72677;BME280;60755;51.374;10.662;2023-07-08T12:56:54;97547.44;;;29.05;33.09
72677;BME280;60755;51.374;10.662;2023-07-08T12:59:23;97544.41;;;29.22;31.02
72677;BME280;60755;51.374;10.662;2023-07-08T13:01:51;97548.06;;;29.14;31.73
72677;BME280;60755;51.374;10.662;2023-07-08T13:04:19;97548.72;;;29.11;31.75